sensor_id;sensor_type;location;lat;lon;timestamp;temperature;humidity
38456;DHT22;24237;50.106;20.014;2023-03-31T00:00:26;12.60;99.90
38456;DHT22;24237;50.106;20.014;2023-03-31T00:02:52;12.80;99.90
38456;DHT22;24237;50.106;20.014;2023-03-31T00:05:23;12.80;99.90
38456;DHT22;24237;50.106;20.014;2023-03-31T00:07:55;12.80;99.90
38456;DHT22;24237;50.106;20.014;2023-03-31T00:10:26;12.80;99.90
38456;DHT22;24237;50.106;20.014;2023-03-31T00:12:52;13.00;99.90
38456;DHT22;24237;50.106;20.014;2023-03-31T00:15:18;12.90;99.90
38456;DHT22;24237;50.106;20.014;2023-03-31T00:17:44;12.80;99.90
38456;DHT22;24237;50.106;20.014;2023-03-31T00:20:11;12.90;99.90
38456;DHT22;24237;50.106;20.014;2023-03-31T00:22:39;12.90;99.90
38456;DHT22;24237;50.106;20.014;2023-03-31T00:25:08;12.80;99.90
38456;DHT22;24237;50.106;20.014;2023-03-31T00:27:35;12.90;99.90
38456;DHT22;24237;50.106;20.014;2023-03-31T00:30:01;12.80;99.90
38456;DHT22;24237;50.106;20.014;2023-03-31T00:32:26;12.80;99.90
38456;DHT22;24237;50.106;20.014;2023-03-31T00:34:52;12.90;99.90
38456;DHT22;24237;50.106;20.014;2023-03-31T00:37:18;12.90;99.90
38456;DHT22;24237;50.106;20.014;2023-03-31T00:39:43;13.00;99.90
38456;DHT22;24237;50.106;20.014;2023-03-31T00:42:10;13.00;99.90
38456;DHT22;24237;50.106;20.014;2023-03-31T00:47:52;12.70;99.90
38456;DHT22;24237;50.106;20.014;2023-03-31T00:50:25;12.60;99.90
38456;DHT22;24237;50.106;20.014;2023-03-31T00:52:56;12.90;99.90
38456;DHT22;24237;50.106;20.014;2023-03-31T00:55:30;12.90;99.90
38456;DHT22;24237;50.106;20.014;2023-03-31T00:57:57;12.80;99.90
38456;DHT22;24237;50.106;20.014;2023-03-31T01:00:23;12.60;99.90
38456;DHT22;24237;50.106;20.014;2023-03-31T01:02:53;12.70;99.90
38456;DHT22;24237;50.106;20.014;2023-03-31T01:06:04;12.70;99.90
38456;DHT22;24237;50.106;20.014;2023-03-31T01:08:31;12.40;99.90
38456;DHT22;24237;50.106;20.014;2023-03-31T01:11:03;12.50;99.90
38456;DHT22;24237;50.106;20.014;2023-03-31T01:13:31;12.50;99.90
38456;DHT22;24237;50.106;20.014;2023-03-31T01:15:59;12.50;99.90
38456;DHT22;24237;50.106;20.014;2023-03-31T01:18:25;12.50;99.90
38456;DHT22;24237;50.106;20.014;2023-03-31T01:30:18;12.40;99.90
38456;DHT22;24237;50.106;20.014;2023-03-31T01:35:53;12.40;99.90
38456;DHT22;24237;50.106;20.014;2023-03-31T01:38:41;12.40;99.90
38456;DHT22;24237;50.106;20.014;2023-03-31T01:46:30;12.40;99.90
38456;DHT22;24237;50.106;20.014;2023-03-31T01:54:41;12.40;99.90
38456;DHT22;24237;50.106;20.014;2023-03-31T01:59:55;12.30;99.90
38456;DHT22;24237;50.106;20.014;2023-03-31T02:02:31;12.30;99.90
38456;DHT22;24237;50.106;20.014;2023-03-31T02:05:17;12.30;99.90
38456;DHT22;24237;50.106;20.014;2023-03-31T02:10:32;12.40;99.90
38456;DHT22;24237;50.106;20.014;2023-03-31T02:13:00;12.40;99.90
38456;DHT22;24237;50.106;20.014;2023-03-31T02:15:31;12.40;99.90
38456;DHT22;24237;50.106;20.014;2023-03-31T02:18:01;12.30;99.90
38456;DHT22;24237;50.106;20.014;2023-03-31T02:20:31;12.40;99.90
38456;DHT22;24237;50.106;20.014;2023-03-31T02:22:58;12.50;99.90
38456;DHT22;24237;50.106;20.014;2023-03-31T02:25:30;12.40;99.90
38456;DHT22;24237;50.106;20.014;2023-03-31T02:28:05;12.40;99.90
38456;DHT22;24237;50.106;20.014;2023-03-31T02:30:48;12.50;99.90
38456;DHT22;24237;50.106;20.014;2023-03-31T02:33:13;12.30;99.90
38456;DHT22;24237;50.106;20.014;2023-03-31T02:35:41;12.40;99.90
38456;DHT22;24237;50.106;20.014;2023-03-31T02:38:07;12.70;99.90
38456;DHT22;24237;50.106;20.014;2023-03-31T02:40:32;12.80;99.90
38456;DHT22;24237;50.106;20.014;2023-03-31T02:42:58;12.60;99.90
38456;DHT22;24237;50.106;20.014;2023-03-31T02:45:44;12.50;99.90
38456;DHT22;24237;50.106;20.014;2023-03-31T02:48:14;12.50;99.90
38456;DHT22;24237;50.106;20.014;2023-03-31T03:02:07;12.30;99.90
38456;DHT22;24237;50.106;20.014;2023-03-31T03:07:22;12.20;99.90
38456;DHT22;24237;50.106;20.014;2023-03-31T03:09:59;12.40;99.90
38456;DHT22;24237;50.106;20.014;2023-03-31T03:15:34;12.30;99.90
38456;DHT22;24237;50.106;20.014;2023-03-31T03:18:02;12.30;99.90
38456;DHT22;24237;50.106;20.014;2023-03-31T03:20:30;12.40;99.90
38456;DHT22;24237;50.106;20.014;2023-03-31T03:22:58;12.40;99.90
38456;DHT22;24237;50.106;20.014;2023-03-31T03:25:24;12.30;99.90
38456;DHT22;24237;50.106;20.014;2023-03-31T03:27:50;12.30;99.90
38456;DHT22;24237;50.106;20.014;2023-03-31T03:30:17;12.20;99.90
38456;DHT22;24237;50.106;20.014;2023-03-31T03:32:43;12.20;99.90
38456;DHT22;24237;50.106;20.014;2023-03-31T03:35:10;12.40;99.90
38456;DHT22;24237;50.106;20.014;2023-03-31T03:37:36;12.30;99.90
38456;DHT22;24237;50.106;20.014;2023-03-31T03:40:03;12.30;99.90
38456;DHT22;24237;50.106;20.014;2023-03-31T03:42:31;12.20;99.90
38456;DHT22;24237;50.106;20.014;2023-03-31T03:44:56;12.40;99.90
38456;DHT22;24237;50.106;20.014;2023-03-31T03:47:22;12.40;99.90
38456;DHT22;24237;50.106;20.014;2023-03-31T03:49:48;12.40;99.90
38456;DHT22;24237;50.106;20.014;2023-03-31T03:52:14;12.30;99.90
38456;DHT22;24237;50.106;20.014;2023-03-31T03:54:40;12.30;99.90
38456;DHT22;24237;50.106;20.014;2023-03-31T03:57:05;12.40;99.90
38456;DHT22;24237;50.106;20.014;2023-03-31T03:59:32;12.50;99.90
38456;DHT22;24237;50.106;20.014;2023-03-31T04:01:57;12.50;99.90
38456;DHT22;24237;50.106;20.014;2023-03-31T04:04:23;12.40;99.90
38456;DHT22;24237;50.106;20.014;2023-03-31T04:06:49;12.40;99.90
38456;DHT22;24237;50.106;20.014;2023-03-31T04:09:15;12.40;99.90
38456;DHT22;24237;50.106;20.014;2023-03-31T04:11:40;12.30;99.90
38456;DHT22;24237;50.106;20.014;2023-03-31T04:14:06;12.40;99.90
38456;DHT22;24237;50.106;20.014;2023-03-31T04:16:32;12.30;99.90
38456;DHT22;24237;50.106;20.014;2023-03-31T04:18:59;12.30;99.90
38456;DHT22;24237;50.106;20.014;2023-03-31T04:21:28;12.40;99.90
38456;DHT22;24237;50.106;20.014;2023-03-31T04:23:55;12.40;99.90
38456;DHT22;24237;50.106;20.014;2023-03-31T04:26:27;12.30;99.90
38456;DHT22;24237;50.106;20.014;2023-03-31T04:29:07;12.30;99.90
38456;DHT22;24237;50.106;20.014;2023-03-31T04:31:33;12.40;99.90
38456;DHT22;24237;50.106;20.014;2023-03-31T04:34:03;12.40;99.90
38456;DHT22;24237;50.106;20.014;2023-03-31T04:36:32;12.30;99.90
38456;DHT22;24237;50.106;20.014;2023-03-31T04:38:58;12.30;99.90
38456;DHT22;24237;50.106;20.014;2023-03-31T04:41:24;12.40;99.90
38456;DHT22;24237;50.106;20.014;2023-03-31T04:43:52;12.20;99.90
38456;DHT22;24237;50.106;20.014;2023-03-31T04:46:17;12.30;99.90
38456;DHT22;24237;50.106;20.014;2023-03-31T04:48:43;12.40;99.90
38456;DHT22;24237;50.106;20.014;2023-03-31T04:51:08;12.40;99.90
38456;DHT22;24237;50.106;20.014;2023-03-31T04:53:35;12.40;99.90
38456;DHT22;24237;50.106;20.014;2023-03-31T04:56:01;12.30;99.90
38456;DHT22;24237;50.106;20.014;2023-03-31T04:58:27;12.30;99.90
38456;DHT22;24237;50.106;20.014;2023-03-31T05:00:52;12.30;99.90
38456;DHT22;24237;50.106;20.014;2023-03-31T05:03:19;12.50;99.90
38456;DHT22;24237;50.106;20.014;2023-03-31T05:05:44;12.50;99.90
38456;DHT22;24237;50.106;20.014;2023-03-31T05:08:10;12.40;99.90
38456;DHT22;24237;50.106;20.014;2023-03-31T05:10:36;12.60;99.90
38456;DHT22;24237;50.106;20.014;2023-03-31T05:13:02;12.70;99.90
38456;DHT22;24237;50.106;20.014;2023-03-31T05:15:27;12.70;99.90
38456;DHT22;24237;50.106;20.014;2023-03-31T05:17:53;12.70;99.90
38456;DHT22;24237;50.106;20.014;2023-03-31T05:20:19;12.90;99.90
38456;DHT22;24237;50.106;20.014;2023-03-31T05:22:45;12.90;99.90
38456;DHT22;24237;50.106;20.014;2023-03-31T05:25:12;12.90;99.90
38456;DHT22;24237;50.106;20.014;2023-03-31T05:27:46;12.90;99.90
38456;DHT22;24237;50.106;20.014;2023-03-31T05:30:12;13.00;99.90
38456;DHT22;24237;50.106;20.014;2023-03-31T05:32:38;13.00;99.90
38456;DHT22;24237;50.106;20.014;2023-03-31T05:35:04;12.80;99.90
38456;DHT22;24237;50.106;20.014;2023-03-31T05:37:30;13.00;99.90
38456;DHT22;24237;50.106;20.014;2023-03-31T05:39:56;13.00;99.90
38456;DHT22;24237;50.106;20.014;2023-03-31T05:42:22;12.80;99.90
38456;DHT22;24237;50.106;20.014;2023-03-31T05:44:47;12.80;99.90
38456;DHT22;24237;50.106;20.014;2023-03-31T05:47:13;12.90;99.90
38456;DHT22;24237;50.106;20.014;2023-03-31T05:49:39;13.10;99.90
38456;DHT22;24237;50.106;20.014;2023-03-31T05:52:06;13.10;99.90
38456;DHT22;24237;50.106;20.014;2023-03-31T05:54:32;13.00;99.90
38456;DHT22;24237;50.106;20.014;2023-03-31T05:56:58;13.00;99.90
38456;DHT22;24237;50.106;20.014;2023-03-31T05:59:23;13.00;99.90
38456;DHT22;24237;50.106;20.014;2023-03-31T06:01:49;12.80;99.90
38456;DHT22;24237;50.106;20.014;2023-03-31T06:04:15;12.70;99.90
38456;DHT22;24237;50.106;20.014;2023-03-31T06:06:41;12.80;99.90
38456;DHT22;24237;50.106;20.014;2023-03-31T06:09:07;12.90;99.90
38456;DHT22;24237;50.106;20.014;2023-03-31T06:11:33;12.90;99.90
38456;DHT22;24237;50.106;20.014;2023-03-31T06:13:58;13.00;99.90
38456;DHT22;24237;50.106;20.014;2023-03-31T06:16:24;13.20;99.90
38456;DHT22;24237;50.106;20.014;2023-03-31T06:18:51;13.40;99.90
38456;DHT22;24237;50.106;20.014;2023-03-31T06:21:17;13.20;99.90
38456;DHT22;24237;50.106;20.014;2023-03-31T06:23:44;13.30;99.90
38456;DHT22;24237;50.106;20.014;2023-03-31T06:26:12;13.40;99.90
38456;DHT22;24237;50.106;20.014;2023-03-31T06:28:39;13.40;99.90
38456;DHT22;24237;50.106;20.014;2023-03-31T06:31:06;13.30;99.90
38456;DHT22;24237;50.106;20.014;2023-03-31T06:33:33;13.30;99.90
38456;DHT22;24237;50.106;20.014;2023-03-31T06:35:59;13.30;99.90
38456;DHT22;24237;50.106;20.014;2023-03-31T06:38:26;13.50;99.90
38456;DHT22;24237;50.106;20.014;2023-03-31T06:40:53;13.60;99.90
38456;DHT22;24237;50.106;20.014;2023-03-31T06:43:18;13.40;99.90
38456;DHT22;24237;50.106;20.014;2023-03-31T06:45:45;13.40;99.90
38456;DHT22;24237;50.106;20.014;2023-03-31T06:48:11;13.70;99.90
38456;DHT22;24237;50.106;20.014;2023-03-31T06:50:38;13.60;99.90
38456;DHT22;24237;50.106;20.014;2023-03-31T06:53:24;13.40;99.90
38456;DHT22;24237;50.106;20.014;2023-03-31T06:55:49;13.50;99.90
38456;DHT22;24237;50.106;20.014;2023-03-31T06:58:15;13.50;99.90
38456;DHT22;24237;50.106;20.014;2023-03-31T07:00:41;13.80;99.90
38456;DHT22;24237;50.106;20.014;2023-03-31T07:03:06;14.10;99.90
38456;DHT22;24237;50.106;20.014;2023-03-31T07:05:33;14.30;99.90
38456;DHT22;24237;50.106;20.014;2023-03-31T07:07:59;14.20;99.90
38456;DHT22;24237;50.106;20.014;2023-03-31T07:10:27;14.50;99.90
38456;DHT22;24237;50.106;20.014;2023-03-31T07:12:54;14.60;99.90
38456;DHT22;24237;50.106;20.014;2023-03-31T07:15:20;14.40;99.90
38456;DHT22;24237;50.106;20.014;2023-03-31T07:17:46;14.40;99.90
38456;DHT22;24237;50.106;20.014;2023-03-31T07:20:16;14.50;99.90
38456;DHT22;24237;50.106;20.014;2023-03-31T07:22:46;14.50;99.90
38456;DHT22;24237;50.106;20.014;2023-03-31T07:25:14;14.60;99.90
38456;DHT22;24237;50.106;20.014;2023-03-31T07:27:41;14.70;99.90
38456;DHT22;24237;50.106;20.014;2023-03-31T07:30:12;14.90;99.90
38456;DHT22;24237;50.106;20.014;2023-03-31T07:32:38;15.10;99.90
38456;DHT22;24237;50.106;20.014;2023-03-31T07:35:10;15.30;99.90
38456;DHT22;24237;50.106;20.014;2023-03-31T07:37:37;15.00;99.90
38456;DHT22;24237;50.106;20.014;2023-03-31T07:40:04;15.20;99.90
38456;DHT22;24237;50.106;20.014;2023-03-31T07:42:31;15.20;99.90
38456;DHT22;24237;50.106;20.014;2023-03-31T07:44:57;15.40;99.90
38456;DHT22;24237;50.106;20.014;2023-03-31T07:47:23;15.40;99.90
38456;DHT22;24237;50.106;20.014;2023-03-31T07:49:49;15.50;99.90
38456;DHT22;24237;50.106;20.014;2023-03-31T07:52:15;15.60;99.90
38456;DHT22;24237;50.106;20.014;2023-03-31T07:54:41;15.30;99.90
38456;DHT22;24237;50.106;20.014;2023-03-31T07:57:07;15.50;99.90
38456;DHT22;24237;50.106;20.014;2023-03-31T07:59:33;15.40;99.90
38456;DHT22;24237;50.106;20.014;2023-03-31T08:01:59;15.50;99.90
38456;DHT22;24237;50.106;20.014;2023-03-31T08:04:25;15.80;99.90
38456;DHT22;24237;50.106;20.014;2023-03-31T08:06:51;15.70;99.90
38456;DHT22;24237;50.106;20.014;2023-03-31T08:09:18;15.60;99.90
38456;DHT22;24237;50.106;20.014;2023-03-31T08:11:44;15.20;99.90
38456;DHT22;24237;50.106;20.014;2023-03-31T08:14:10;15.50;99.90
38456;DHT22;24237;50.106;20.014;2023-03-31T08:16:35;15.40;99.90
38456;DHT22;24237;50.106;20.014;2023-03-31T08:19:01;15.50;99.90
38456;DHT22;24237;50.106;20.014;2023-03-31T08:21:28;15.70;99.90
38456;DHT22;24237;50.106;20.014;2023-03-31T08:23:55;15.70;99.90
38456;DHT22;24237;50.106;20.014;2023-03-31T08:26:20;15.60;99.90
38456;DHT22;24237;50.106;20.014;2023-03-31T08:28:50;16.00;99.90
38456;DHT22;24237;50.106;20.014;2023-03-31T08:31:20;16.00;99.90
38456;DHT22;24237;50.106;20.014;2023-03-31T08:33:46;16.00;99.90
38456;DHT22;24237;50.106;20.014;2023-03-31T08:36:12;16.20;99.90
38456;DHT22;24237;50.106;20.014;2023-03-31T08:38:41;16.20;99.90
38456;DHT22;24237;50.106;20.014;2023-03-31T08:43:48;16.30;99.90
38456;DHT22;24237;50.106;20.014;2023-03-31T08:46:16;16.50;99.90
38456;DHT22;24237;50.106;20.014;2023-03-31T08:48:49;16.70;99.90
38456;DHT22;24237;50.106;20.014;2023-03-31T08:51:21;17.30;99.90
38456;DHT22;24237;50.106;20.014;2023-03-31T08:54:05;17.70;99.90
38456;DHT22;24237;50.106;20.014;2023-03-31T08:56:40;17.40;99.90
38456;DHT22;24237;50.106;20.014;2023-03-31T08:59:19;17.40;99.90
38456;DHT22;24237;50.106;20.014;2023-03-31T09:01:53;17.30;99.90
38456;DHT22;24237;50.106;20.014;2023-03-31T09:07:15;17.10;99.90
38456;DHT22;24237;50.106;20.014;2023-03-31T09:09:48;17.40;99.90
38456;DHT22;24237;50.106;20.014;2023-03-31T09:14:54;17.30;99.90
38456;DHT22;24237;50.106;20.014;2023-03-31T09:17:32;16.90;99.90
38456;DHT22;24237;50.106;20.014;2023-03-31T09:20:04;16.80;99.90
38456;DHT22;24237;50.106;20.014;2023-03-31T09:22:37;16.70;99.90
38456;DHT22;24237;50.106;20.014;2023-03-31T09:25:10;16.80;99.90
38456;DHT22;24237;50.106;20.014;2023-03-31T09:27:39;16.70;99.90
38456;DHT22;24237;50.106;20.014;2023-03-31T09:30:18;16.60;99.90
38456;DHT22;24237;50.106;20.014;2023-03-31T09:32:47;16.60;99.90
38456;DHT22;24237;50.106;20.014;2023-03-31T09:37:43;17.50;99.90
38456;DHT22;24237;50.106;20.014;2023-03-31T09:40:21;17.80;99.90
38456;DHT22;24237;50.106;20.014;2023-03-31T09:42:53;17.90;99.90
38456;DHT22;24237;50.106;20.014;2023-03-31T09:45:19;17.80;99.90
38456;DHT22;24237;50.106;20.014;2023-03-31T09:47:50;18.00;99.90
38456;DHT22;24237;50.106;20.014;2023-03-31T09:50:17;18.20;99.80
38456;DHT22;24237;50.106;20.014;2023-03-31T09:52:47;17.90;99.90
38456;DHT22;24237;50.106;20.014;2023-03-31T09:57:44;18.70;99.70
38456;DHT22;24237;50.106;20.014;2023-03-31T10:02:51;18.00;99.60
38456;DHT22;24237;50.106;20.014;2023-03-31T10:05:34;17.60;99.90
38456;DHT22;24237;50.106;20.014;2023-03-31T10:08:28;17.70;99.90
38456;DHT22;24237;50.106;20.014;2023-03-31T10:11:06;17.90;99.70
38456;DHT22;24237;50.106;20.014;2023-03-31T10:13:58;17.80;99.90
38456;DHT22;24237;50.106;20.014;2023-03-31T10:18:58;18.20;99.40
38456;DHT22;24237;50.106;20.014;2023-03-31T10:21:36;18.60;98.90
38456;DHT22;24237;50.106;20.014;2023-03-31T10:24:08;18.60;98.20
38456;DHT22;24237;50.106;20.014;2023-03-31T10:26:38;18.40;98.40
38456;DHT22;24237;50.106;20.014;2023-03-31T10:29:11;18.40;98.60
38456;DHT22;24237;50.106;20.014;2023-03-31T10:31:43;18.40;97.90
38456;DHT22;24237;50.106;20.014;2023-03-31T10:34:13;18.50;98.00
38456;DHT22;24237;50.106;20.014;2023-03-31T10:36:50;18.70;97.30
38456;DHT22;24237;50.106;20.014;2023-03-31T10:39:17;18.70;97.40
38456;DHT22;24237;50.106;20.014;2023-03-31T10:41:51;19.00;97.20
38456;DHT22;24237;50.106;20.014;2023-03-31T10:44:30;19.10;96.40
38456;DHT22;24237;50.106;20.014;2023-03-31T10:47:15;19.10;96.50
38456;DHT22;24237;50.106;20.014;2023-03-31T10:49:43;19.20;96.60
38456;DHT22;24237;50.106;20.014;2023-03-31T10:52:16;19.50;95.90
38456;DHT22;24237;50.106;20.014;2023-03-31T10:54:52;19.10;96.20
38456;DHT22;24237;50.106;20.014;2023-03-31T10:57:33;19.20;96.40
38456;DHT22;24237;50.106;20.014;2023-03-31T11:00:23;19.50;96.00
38456;DHT22;24237;50.106;20.014;2023-03-31T11:03:00;19.80;95.80
38456;DHT22;24237;50.106;20.014;2023-03-31T11:05:43;19.70;95.90
38456;DHT22;24237;50.106;20.014;2023-03-31T11:08:39;20.20;94.90
38456;DHT22;24237;50.106;20.014;2023-03-31T11:11:21;19.60;95.20
38456;DHT22;24237;50.106;20.014;2023-03-31T11:14:09;19.70;94.50
38456;DHT22;24237;50.106;20.014;2023-03-31T11:17:01;19.90;94.60
38456;DHT22;24237;50.106;20.014;2023-03-31T11:19:54;19.60;94.20
38456;DHT22;24237;50.106;20.014;2023-03-31T11:22:55;19.00;95.10
38456;DHT22;24237;50.106;20.014;2023-03-31T11:28:27;18.60;95.70
38456;DHT22;24237;50.106;20.014;2023-03-31T11:36:43;18.40;96.10
38456;DHT22;24237;50.106;20.014;2023-03-31T11:42:09;18.60;95.20
38456;DHT22;24237;50.106;20.014;2023-03-31T11:44:41;18.20;95.30
38456;DHT22;24237;50.106;20.014;2023-03-31T11:47:16;18.20;95.80
38456;DHT22;24237;50.106;20.014;2023-03-31T11:49:50;18.20;95.70
38456;DHT22;24237;50.106;20.014;2023-03-31T11:52:19;18.10;96.10
38456;DHT22;24237;50.106;20.014;2023-03-31T11:57:26;18.20;96.30
38456;DHT22;24237;50.106;20.014;2023-03-31T12:00:04;18.30;96.20
38456;DHT22;24237;50.106;20.014;2023-03-31T12:02:52;18.20;96.70
38456;DHT22;24237;50.106;20.014;2023-03-31T12:05:21;18.10;96.70
38456;DHT22;24237;50.106;20.014;2023-03-31T12:07:56;17.80;97.30
38456;DHT22;24237;50.106;20.014;2023-03-31T12:10:57;17.80;97.50
38456;DHT22;24237;50.106;20.014;2023-03-31T12:13:43;17.70;97.80
38456;DHT22;24237;50.106;20.014;2023-03-31T12:19:12;18.00;97.50
38456;DHT22;24237;50.106;20.014;2023-03-31T12:21:46;18.30;97.20
38456;DHT22;24237;50.106;20.014;2023-03-31T12:24:13;18.40;97.20
38456;DHT22;24237;50.106;20.014;2023-03-31T12:29:41;18.80;96.80
38456;DHT22;24237;50.106;20.014;2023-03-31T12:32:15;18.90;96.50
38456;DHT22;24237;50.106;20.014;2023-03-31T12:35:01;19.30;96.10
38456;DHT22;24237;50.106;20.014;2023-03-31T12:40:22;20.00;95.20
38456;DHT22;24237;50.106;20.014;2023-03-31T12:46:21;21.00;93.80
38456;DHT22;24237;50.106;20.014;2023-03-31T12:59:41;19.20;95.00
38456;DHT22;24237;50.106;20.014;2023-03-31T13:04:41;19.40;94.90
38456;DHT22;24237;50.106;20.014;2023-03-31T13:07:34;19.40;95.00
38456;DHT22;24237;50.106;20.014;2023-03-31T13:12:38;19.60;94.80
38456;DHT22;24237;50.106;20.014;2023-03-31T13:15:05;19.70;94.80
38456;DHT22;24237;50.106;20.014;2023-03-31T13:17:37;21.20;93.90
38456;DHT22;24237;50.106;20.014;2023-03-31T13:20:22;23.30;91.80
38456;DHT22;24237;50.106;20.014;2023-03-31T13:22:59;23.90;89.50
38456;DHT22;24237;50.106;20.014;2023-03-31T13:28:03;22.10;90.40
38456;DHT22;24237;50.106;20.014;2023-03-31T13:33:30;21.70;90.70
38456;DHT22;24237;50.106;20.014;2023-03-31T13:50:30;21.20;88.00
38456;DHT22;24237;50.106;20.014;2023-03-31T13:53:16;20.40;89.30
38456;DHT22;24237;50.106;20.014;2023-03-31T14:06:37;18.90;91.90
38456;DHT22;24237;50.106;20.014;2023-03-31T14:09:11;18.70;92.00
38456;DHT22;24237;50.106;20.014;2023-03-31T14:11:40;18.50;92.40
38456;DHT22;24237;50.106;20.014;2023-03-31T14:16:49;18.20;92.40
38456;DHT22;24237;50.106;20.014;2023-03-31T14:21:50;17.40;94.50
38456;DHT22;24237;50.106;20.014;2023-03-31T14:24:40;17.30;95.90
38456;DHT22;24237;50.106;20.014;2023-03-31T14:27:17;16.90;98.50
38456;DHT22;24237;50.106;20.014;2023-03-31T14:33:05;16.50;99.90
38456;DHT22;24237;50.106;20.014;2023-03-31T14:35:36;16.70;99.90
38456;DHT22;24237;50.106;20.014;2023-03-31T14:38:05;17.20;99.90
38456;DHT22;24237;50.106;20.014;2023-03-31T14:40:36;17.50;99.90
38456;DHT22;24237;50.106;20.014;2023-03-31T14:43:20;17.50;99.90
38456;DHT22;24237;50.106;20.014;2023-03-31T14:45:47;17.30;99.90
38456;DHT22;24237;50.106;20.014;2023-03-31T14:48:17;17.10;99.90
38456;DHT22;24237;50.106;20.014;2023-03-31T14:50:45;17.40;99.90
38456;DHT22;24237;50.106;20.014;2023-03-31T14:53:14;18.00;99.30
38456;DHT22;24237;50.106;20.014;2023-03-31T14:55:41;18.00;98.20
38456;DHT22;24237;50.106;20.014;2023-03-31T14:58:10;17.70;95.30
38456;DHT22;24237;50.106;20.014;2023-03-31T15:00:38;17.60;94.80
38456;DHT22;24237;50.106;20.014;2023-03-31T15:03:07;17.60;94.70
38456;DHT22;24237;50.106;20.014;2023-03-31T15:05:39;17.30;95.10
38456;DHT22;24237;50.106;20.014;2023-03-31T15:08:10;16.80;95.90
38456;DHT22;24237;50.106;20.014;2023-03-31T15:10:39;16.80;95.70
38456;DHT22;24237;50.106;20.014;2023-03-31T15:13:16;17.10;95.70
38456;DHT22;24237;50.106;20.014;2023-03-31T15:15:43;17.10;95.60
38456;DHT22;24237;50.106;20.014;2023-03-31T15:18:15;17.30;95.60
38456;DHT22;24237;50.106;20.014;2023-03-31T15:20:42;17.10;95.60
38456;DHT22;24237;50.106;20.014;2023-03-31T15:23:19;17.00;95.70
38456;DHT22;24237;50.106;20.014;2023-03-31T15:26:00;17.30;95.40
38456;DHT22;24237;50.106;20.014;2023-03-31T15:28:32;17.10;95.50
38456;DHT22;24237;50.106;20.014;2023-03-31T15:31:00;17.30;95.20
38456;DHT22;24237;50.106;20.014;2023-03-31T15:33:32;17.10;95.30
38456;DHT22;24237;50.106;20.014;2023-03-31T15:36:01;17.10;95.10
38456;DHT22;24237;50.106;20.014;2023-03-31T15:38:28;17.10;94.90
38456;DHT22;24237;50.106;20.014;2023-03-31T15:40:57;17.10;94.70
38456;DHT22;24237;50.106;20.014;2023-03-31T15:43:27;17.30;94.80
38456;DHT22;24237;50.106;20.014;2023-03-31T15:45:57;17.10;95.00
38456;DHT22;24237;50.106;20.014;2023-03-31T15:48:33;17.10;94.80
38456;DHT22;24237;50.106;20.014;2023-03-31T15:51:00;17.10;94.90
38456;DHT22;24237;50.106;20.014;2023-03-31T15:53:48;17.20;94.80
38456;DHT22;24237;50.106;20.014;2023-03-31T15:56:36;17.40;94.80
38456;DHT22;24237;50.106;20.014;2023-03-31T15:59:26;17.30;94.60
38456;DHT22;24237;50.106;20.014;2023-03-31T16:01:53;17.30;94.40
38456;DHT22;24237;50.106;20.014;2023-03-31T16:04:20;17.20;94.60
38456;DHT22;24237;50.106;20.014;2023-03-31T16:06:50;17.30;94.60
38456;DHT22;24237;50.106;20.014;2023-03-31T16:09:26;17.00;94.70
38456;DHT22;24237;50.106;20.014;2023-03-31T16:11:55;17.20;94.90
38456;DHT22;24237;50.106;20.014;2023-03-31T16:14:32;17.40;94.90
38456;DHT22;24237;50.106;20.014;2023-03-31T16:17:05;17.70;94.90
38456;DHT22;24237;50.106;20.014;2023-03-31T16:19:45;17.80;94.80
38456;DHT22;24237;50.106;20.014;2023-03-31T16:22:19;17.80;94.90
38456;DHT22;24237;50.106;20.014;2023-03-31T16:24:46;18.00;95.30
38456;DHT22;24237;50.106;20.014;2023-03-31T16:27:12;17.70;95.30
38456;DHT22;24237;50.106;20.014;2023-03-31T16:29:38;17.50;95.50
38456;DHT22;24237;50.106;20.014;2023-03-31T16:32:12;17.50;95.50
38456;DHT22;24237;50.106;20.014;2023-03-31T16:34:58;17.60;95.90
38456;DHT22;24237;50.106;20.014;2023-03-31T16:37:24;17.60;95.50
38456;DHT22;24237;50.106;20.014;2023-03-31T16:39:50;17.50;95.20
38456;DHT22;24237;50.106;20.014;2023-03-31T16:42:17;17.60;95.50
38456;DHT22;24237;50.106;20.014;2023-03-31T16:44:43;17.60;95.50
38456;DHT22;24237;50.106;20.014;2023-03-31T16:47:11;17.80;95.40
38456;DHT22;24237;50.106;20.014;2023-03-31T16:49:36;17.70;95.50
38456;DHT22;24237;50.106;20.014;2023-03-31T16:52:02;17.70;95.60
38456;DHT22;24237;50.106;20.014;2023-03-31T16:54:30;17.50;95.70
38456;DHT22;24237;50.106;20.014;2023-03-31T16:56:56;17.30;95.90
38456;DHT22;24237;50.106;20.014;2023-03-31T16:59:22;17.20;95.80
38456;DHT22;24237;50.106;20.014;2023-03-31T17:01:49;17.20;95.80
38456;DHT22;24237;50.106;20.014;2023-03-31T17:04:15;17.10;96.00
38456;DHT22;24237;50.106;20.014;2023-03-31T17:06:40;17.10;96.00
38456;DHT22;24237;50.106;20.014;2023-03-31T17:09:06;16.90;96.30
38456;DHT22;24237;50.106;20.014;2023-03-31T17:11:32;16.90;96.20
38456;DHT22;24237;50.106;20.014;2023-03-31T17:13:58;16.80;96.50
38456;DHT22;24237;50.106;20.014;2023-03-31T17:16:24;16.80;96.60
38456;DHT22;24237;50.106;20.014;2023-03-31T17:18:51;16.80;96.50
38456;DHT22;24237;50.106;20.014;2023-03-31T17:21:18;16.70;96.60
38456;DHT22;24237;50.106;20.014;2023-03-31T17:23:44;16.90;96.60
38456;DHT22;24237;50.106;20.014;2023-03-31T17:26:11;16.60;96.80
38456;DHT22;24237;50.106;20.014;2023-03-31T17:28:38;16.70;96.90
38456;DHT22;24237;50.106;20.014;2023-03-31T17:33:37;16.40;97.50
38456;DHT22;24237;50.106;20.014;2023-03-31T17:36:03;16.50;97.50
38456;DHT22;24237;50.106;20.014;2023-03-31T17:38:28;16.70;97.50
38456;DHT22;24237;50.106;20.014;2023-03-31T17:40:54;16.80;97.50
38456;DHT22;24237;50.106;20.014;2023-03-31T17:43:20;16.60;97.60
38456;DHT22;24237;50.106;20.014;2023-03-31T17:45:46;16.50;97.90
38456;DHT22;24237;50.106;20.014;2023-03-31T17:48:11;16.50;98.00
38456;DHT22;24237;50.106;20.014;2023-03-31T17:50:37;16.50;98.10
38456;DHT22;24237;50.106;20.014;2023-03-31T17:53:03;16.40;98.30
38456;DHT22;24237;50.106;20.014;2023-03-31T17:55:34;16.50;98.50
38456;DHT22;24237;50.106;20.014;2023-03-31T17:58:00;16.30;98.80
38456;DHT22;24237;50.106;20.014;2023-03-31T18:00:26;16.50;98.90
38456;DHT22;24237;50.106;20.014;2023-03-31T18:02:52;16.50;98.80
38456;DHT22;24237;50.106;20.014;2023-03-31T18:05:19;16.40;99.00